createdAt,value
2023-01-20T00:00:32.942Z,97111.63
2023-01-20T00:03:00.489Z,97114.09
2023-01-20T00:05:27.926Z,97128.88
2023-01-20T00:07:55.400Z,97126.03
2023-01-20T00:10:23.019Z,97127.56
2023-01-20T00:12:50.491Z,97127.06
2023-01-20T00:15:19.283Z,97128.16
2023-01-20T00:17:46.717Z,97136.03
2023-01-20T00:20:14.160Z,97137.28
2023-01-20T00:22:42.261Z,97140.22
2023-01-20T00:25:11.096Z,97138.09
2023-01-20T00:27:38.586Z,97145.09
2023-01-20T00:30:07.327Z,97155.34
2023-01-20T00:32:39.400Z,97154.13
2023-01-20T00:35:08.074Z,97159.88
2023-01-20T00:37:35.505Z,97156.09
2023-01-20T00:40:02.967Z,97158.81
2023-01-20T00:42:30.407Z,97164.00
2023-01-20T00:44:57.903Z,97163.22
2023-01-20T00:47:25.480Z,97164.94
2023-01-20T00:49:54.281Z,97163.28
2023-01-20T00:52:22.409Z,97166.44
2023-01-20T00:54:49.875Z,97165.53
2023-01-20T00:57:17.341Z,97173.69
2023-01-20T00:59:44.798Z,97174.25
2023-01-20T01:02:12.308Z,97183.22
2023-01-20T01:04:39.808Z,97177.97
2023-01-20T01:07:08.598Z,97188.22
2023-01-20T01:09:36.024Z,97184.75
2023-01-20T01:12:03.474Z,97188.63
2023-01-20T01:14:32.260Z,97193.00
2023-01-20T01:16:59.788Z,97195.03
2023-01-20T01:19:27.246Z,97200.38
2023-01-20T01:21:54.697Z,97207.47
2023-01-20T01:24:23.675Z,97203.16
2023-01-20T01:26:51.161Z,97197.13
2023-01-20T01:29:18.602Z,97207.84
2023-01-20T01:31:46.112Z,97206.81
2023-01-20T01:34:13.610Z,97205.28
2023-01-20T01:36:41.061Z,97210.56
2023-01-20T01:39:08.488Z,97215.69
2023-01-20T01:41:37.292Z,97215.75
2023-01-20T01:44:08.698Z,97212.09
2023-01-20T01:46:36.617Z,97219.69
2023-01-20T01:49:08.735Z,97215.16
2023-01-20T01:51:40.052Z,97219.00
2023-01-20T01:54:13.122Z,97222.25
2023-01-20T01:56:44.414Z,97217.56
2023-01-20T01:59:14.145Z,97224.91
2023-01-20T02:01:45.898Z,97225.28
2023-01-20T02:04:15.659Z,97228.44
2023-01-20T02:06:46.559Z,97222.78
2023-01-20T02:09:15.254Z,97230.16
2023-01-20T02:11:48.549Z,97231.44
2023-01-20T02:14:17.457Z,97224.44
2023-01-20T02:16:54.114Z,97225.94
2023-01-20T02:19:54.575Z,97231.00
2023-01-20T02:22:30.990Z,97227.63
2023-01-20T02:25:30.397Z,97226.03
2023-01-20T02:28:38.051Z,97228.97
2023-01-20T02:31:29.248Z,97229.50
2023-01-20T02:34:01.999Z,97229.41
2023-01-20T02:36:35.717Z,97231.22
2023-01-20T02:39:12.127Z,97236.88
2023-01-20T02:42:00.804Z,97238.38
2023-01-20T02:44:36.509Z,97237.94
2023-01-20T02:47:10.803Z,97242.84
2023-01-20T02:49:43.272Z,97241.03
2023-01-20T02:52:14.236Z,97239.53
2023-01-20T02:54:45.689Z,97243.53
2023-01-20T02:57:18.529Z,97247.84
2023-01-20T02:59:53.833Z,97237.19
2023-01-20T03:02:24.330Z,97245.34
2023-01-20T03:04:59.235Z,97243.38
2023-01-20T03:07:30.639Z,97237.72
2023-01-20T03:10:02.149Z,97243.44
2023-01-20T03:12:35.725Z,97237.88
2023-01-20T03:15:03.874Z,97242.31
2023-01-20T03:17:33.131Z,97239.00
2023-01-20T03:20:02.227Z,97245.59
2023-01-20T03:22:31.628Z,97246.84
2023-01-20T03:25:00.474Z,97251.00
2023-01-20T03:27:27.969Z,97257.59
2023-01-20T03:29:55.415Z,97252.09
2023-01-20T03:32:26.710Z,97247.09
2023-01-20T03:34:56.246Z,97249.53
2023-01-20T03:37:25.272Z,97251.16
2023-01-20T03:39:53.180Z,97249.28
2023-01-20T03:42:29.075Z,97256.66
2023-01-20T03:45:04.622Z,97254.06
2023-01-20T03:47:49.302Z,97259.09
2023-01-20T03:50:27.073Z,97258.97
2023-01-20T03:53:01.551Z,97258.19
2023-01-20T03:55:35.077Z,97255.28
2023-01-20T03:58:07.311Z,97258.44
2023-01-20T04:00:37.681Z,97263.19
2023-01-20T04:03:09.559Z,97259.34
2023-01-20T04:05:38.993Z,97263.00
2023-01-20T04:08:10.858Z,97273.09
2023-01-20T04:10:42.592Z,97274.13
2023-01-20T04:13:10.447Z,97268.84
2023-01-20T04:15:40.731Z,97275.94
2023-01-20T04:18:13.074Z,97274.75
2023-01-20T04:20:41.411Z,97277.06
2023-01-20T04:23:18.668Z,97277.75
2023-01-20T04:25:46.594Z,97283.56
2023-01-20T04:28:14.055Z,97282.41
2023-01-20T04:30:41.569Z,97279.84
2023-01-20T04:33:09.106Z,97297.31
2023-01-20T04:35:36.565Z,97299.75
2023-01-20T04:38:04.254Z,97294.69
2023-01-20T04:40:33.319Z,97295.78
2023-01-20T04:43:00.805Z,97291.28
2023-01-20T04:45:28.283Z,97300.75
2023-01-20T04:47:55.766Z,97301.38
2023-01-20T04:50:23.253Z,97302.72
2023-01-20T04:52:50.726Z,97300.41
2023-01-20T04:55:18.194Z,97308.09
2023-01-20T04:57:48.307Z,97322.53
2023-01-20T05:00:19.907Z,97320.31
2023-01-20T05:02:48.166Z,97319.72
2023-01-20T05:05:16.325Z,97321.19
2023-01-20T05:07:44.064Z,97329.31
2023-01-20T05:10:13.354Z,97334.53
2023-01-20T05:12:41.123Z,97338.28
2023-01-20T05:15:10.873Z,97339.41
2023-01-20T05:17:38.330Z,97348.94
2023-01-20T05:20:06.476Z,97349.91
2023-01-20T05:22:34.034Z,97350.59
2023-01-20T05:25:01.507Z,97353.44
2023-01-20T05:27:29.007Z,97354.81
2023-01-20T05:29:56.435Z,97356.59
2023-01-20T05:32:25.189Z,97361.34
2023-01-20T05:34:52.633Z,97362.16
2023-01-20T05:37:20.071Z,97363.41
2023-01-20T05:39:47.506Z,97366.50
2023-01-20T05:42:15.519Z,97369.66
2023-01-20T05:44:43.033Z,97368.81
2023-01-20T05:47:10.876Z,97384.06
2023-01-20T05:49:39.773Z,97380.78
2023-01-20T05:52:07.296Z,97385.63
2023-01-20T05:54:34.779Z,97406.31
2023-01-20T05:57:04.077Z,97406.56
2023-01-20T05:59:31.576Z,97404.44
2023-01-20T06:01:59.025Z,97406.66
2023-01-20T06:04:26.493Z,97400.19
2023-01-20T06:06:55.301Z,97404.22
2023-01-20T06:09:22.760Z,97416.31
2023-01-20T06:11:51.734Z,97415.47
2023-01-20T06:14:19.173Z,97403.88
2023-01-20T06:16:46.658Z,97422.31
2023-01-20T06:19:14.227Z,97427.78
2023-01-20T06:21:41.698Z,97426.44
2023-01-20T06:24:10.577Z,97429.47
2023-01-20T06:26:38.022Z,97427.16
2023-01-20T06:29:05.471Z,97427.16
2023-01-20T06:31:33.072Z,97427.75
2023-01-20T06:34:00.689Z,97440.31
2023-01-20T06:36:28.151Z,97439.41
2023-01-20T06:38:55.843Z,97444.59
2023-01-20T06:41:24.928Z,97447.13
2023-01-20T06:43:52.538Z,97443.91
2023-01-20T06:46:20.191Z,97444.91
2023-01-20T06:48:47.964Z,97445.28
2023-01-20T06:51:17.419Z,97448.56
2023-01-20T06:53:45.361Z,97457.75
2023-01-20T06:56:14.458Z,97457.72
2023-01-20T06:58:44.678Z,97459.41
2023-01-20T07:01:14.354Z,97463.94
2023-01-20T07:03:43.417Z,97478.34
2023-01-20T07:06:17.158Z,97479.72
2023-01-20T07:08:45.134Z,97483.19
2023-01-20T07:11:12.943Z,97482.72
2023-01-20T07:13:40.727Z,97485.94
2023-01-20T07:16:11.567Z,97490.53
2023-01-20T07:18:40.424Z,97496.47
2023-01-20T07:21:08.321Z,97492.44
2023-01-20T07:23:35.763Z,97494.00
2023-01-20T07:26:05.405Z,97496.28
2023-01-20T07:28:33.879Z,97496.91
2023-01-20T07:31:04.317Z,97503.44
2023-01-20T07:33:33.694Z,97504.41
2023-01-20T07:36:01.838Z,97508.28
2023-01-20T07:38:30.016Z,97508.38
2023-01-20T07:40:58.482Z,97512.75
2023-01-20T07:43:26.207Z,97517.47
2023-01-20T07:45:56.036Z,97517.47
2023-01-20T07:48:23.616Z,97525.09
2023-01-20T07:51:01.731Z,97528.41
2023-01-20T07:53:29.302Z,97522.75
2023-01-20T07:55:56.890Z,97527.84
2023-01-20T07:58:24.382Z,97525.38
2023-01-20T08:00:51.851Z,97529.38
2023-01-20T08:03:19.317Z,97534.78
2023-01-20T08:05:46.761Z,97535.91
2023-01-20T08:08:15.524Z,97542.47
2023-01-20T08:10:43.050Z,97537.84
2023-01-20T08:13:11.222Z,97541.91
2023-01-20T08:15:38.659Z,97547.72
2023-01-20T08:18:06.188Z,97546.91
2023-01-20T08:20:33.621Z,97548.13
2023-01-20T08:23:01.067Z,97549.81
2023-01-20T08:25:29.857Z,97551.16
2023-01-20T08:27:57.288Z,97560.69
2023-01-20T08:30:24.889Z,97550.94
2023-01-20T08:32:52.434Z,97563.09
2023-01-20T08:35:20.101Z,97559.91
2023-01-20T08:37:47.593Z,97560.34
2023-01-20T08:40:15.435Z,97565.47
2023-01-20T08:42:44.241Z,97574.53
2023-01-20T08:45:12.757Z,97569.22
2023-01-20T08:47:44.195Z,97579.56
2023-01-20T08:50:13.942Z,97576.78
2023-01-20T08:52:41.879Z,97582.22
2023-01-20T08:55:09.593Z,97585.09
2023-01-20T08:57:37.143Z,97585.38
2023-01-20T09:00:10.920Z,97586.66
2023-01-20T09:02:39.084Z,97591.31
2023-01-20T09:05:08.578Z,97595.75
2023-01-20T09:07:36.074Z,97602.13
2023-01-20T09:10:04.308Z,97604.09
2023-01-20T09:12:31.778Z,97614.25
2023-01-20T09:14:59.229Z,97613.41
2023-01-20T09:17:28.041Z,97622.56
2023-01-20T09:19:55.653Z,97617.00
2023-01-20T09:22:23.087Z,97619.47
2023-01-20T09:24:50.529Z,97626.03
2023-01-20T09:27:18.015Z,97626.88
2023-01-20T09:29:45.464Z,97632.63
2023-01-20T09:32:14.222Z,97634.50
2023-01-20T09:34:43.005Z,97634.63
2023-01-20T09:37:28.024Z,97637.84
2023-01-20T09:40:09.596Z,97646.88
2023-01-20T09:43:09.016Z,97647.44
2023-01-20T09:45:42.628Z,97654.50
2023-01-20T09:48:28.364Z,97645.47
2023-01-20T09:51:21.053Z,97649.91
2023-01-20T09:53:57.309Z,97650.22
2023-01-20T09:56:28.362Z,97649.50
2023-01-20T09:59:02.012Z,97657.28
2023-01-20T10:01:37.425Z,97656.59
2023-01-20T10:04:14.100Z,97666.66
2023-01-20T10:06:46.973Z,97662.13
2023-01-20T10:09:24.684Z,97672.94
2023-01-20T10:12:00.576Z,97659.66
2023-01-20T10:14:33.107Z,97660.88
2023-01-20T10:17:08.870Z,97667.81
2023-01-20T10:19:42.329Z,97671.38
2023-01-20T10:22:17.284Z,97665.31
2023-01-20T10:24:52.765Z,97660.19
2023-01-20T10:27:20.212Z,97666.75
2023-01-20T10:29:53.395Z,97669.09
2023-01-20T10:32:29.461Z,97672.28
2023-01-20T10:35:01.201Z,97670.75
2023-01-20T10:37:31.936Z,97673.63
2023-01-20T10:40:08.571Z,97678.91
2023-01-20T10:42:36.038Z,97674.78
2023-01-20T10:45:03.590Z,97671.75
2023-01-20T10:47:43.466Z,97668.69
2023-01-20T10:50:27.937Z,97672.28
2023-01-20T10:53:13.837Z,97672.19
2023-01-20T10:55:52.508Z,97681.59
2023-01-20T10:58:25.208Z,97679.94
2023-01-20T11:00:53.059Z,97672.44
2023-01-20T11:03:22.434Z,97677.16
2023-01-20T11:05:52.049Z,97676.47
2023-01-20T11:08:23.537Z,97690.72
2023-01-20T11:10:55.004Z,97690.00
2023-01-20T11:13:22.480Z,97684.25
2023-01-20T11:15:54.220Z,97682.84
2023-01-20T11:18:26.398Z,97689.66
2023-01-20T11:20:57.191Z,97691.44
2023-01-20T11:23:36.032Z,97689.06
2023-01-20T11:26:10.017Z,97694.13
2023-01-20T11:28:51.454Z,97689.66
2023-01-20T11:31:19.878Z,97685.91
2023-01-20T11:33:59.597Z,97684.25
2023-01-20T11:36:27.705Z,97689.38
2023-01-20T11:38:57.993Z,97687.81
2023-01-20T11:41:27.117Z,97691.47
2023-01-20T11:43:56.520Z,97696.63
2023-01-20T11:46:30.156Z,97699.41
2023-01-20T11:49:14.840Z,97700.78
2023-01-20T11:51:50.568Z,97700.91
2023-01-20T11:54:21.864Z,97693.97
2023-01-20T11:56:53.011Z,97695.50
2023-01-20T11:59:25.246Z,97694.25
2023-01-20T12:01:57.345Z,97703.00
2023-01-20T12:04:52.659Z,97701.06
2023-01-20T12:07:24.392Z,97702.97
2023-01-20T12:09:56.977Z,97698.50
2023-01-20T12:12:30.889Z,97700.53
2023-01-20T12:15:05.814Z,97706.59
2023-01-20T12:17:52.636Z,97708.59
2023-01-20T12:20:27.480Z,97703.44
2023-01-20T12:23:07.346Z,97714.94
2023-01-20T12:25:43.172Z,97706.19
2023-01-20T12:28:16.600Z,97712.44
2023-01-20T12:30:52.320Z,97714.41
2023-01-20T12:33:25.601Z,97713.28
2023-01-20T12:36:41.119Z,97718.72
2023-01-20T12:39:23.335Z,97713.81
2023-01-20T12:42:13.885Z,97719.81
2023-01-20T12:44:50.303Z,97729.50
2023-01-20T12:47:32.362Z,97724.25
2023-01-20T12:50:15.780Z,97724.97
2023-01-20T12:53:02.455Z,97735.41
2023-01-20T12:55:42.910Z,97729.66
2023-01-20T12:58:22.063Z,97735.94
2023-01-20T13:01:12.184Z,97735.94
2023-01-20T13:04:03.433Z,97734.94
2023-01-20T13:06:56.635Z,97738.03
2023-01-20T13:09:39.987Z,97737.34
2023-01-20T13:12:34.630Z,97737.78
2023-01-20T13:15:17.921Z,97734.13
2023-01-20T13:18:05.863Z,97739.03
2023-01-20T13:20:35.025Z,97740.25
2023-01-20T13:23:04.820Z,97753.28
2023-01-20T13:25:34.677Z,97750.84
2023-01-20T13:28:03.100Z,97744.41
2023-01-20T13:30:43.831Z,97745.53
2023-01-20T13:33:17.977Z,97753.03
2023-01-20T13:35:48.223Z,97758.03
2023-01-20T13:38:21.890Z,97767.19
2023-01-20T13:40:55.429Z,97758.06
2023-01-20T13:43:37.742Z,97764.00
2023-01-20T13:46:42.774Z,97758.59
2023-01-20T13:49:22.857Z,97767.00
2023-01-20T13:51:50.706Z,97783.44
2023-01-20T13:54:51.638Z,97772.09
2023-01-20T13:57:35.360Z,97784.66
2023-01-20T14:00:12.049Z,97784.13
2023-01-20T14:02:40.934Z,97786.63
2023-01-20T14:05:31.507Z,97787.94
2023-01-20T14:07:59.965Z,97786.13
2023-01-20T14:10:28.303Z,97793.50
2023-01-20T14:12:55.779Z,97785.72
2023-01-20T14:15:29.291Z,97796.91
2023-01-20T14:17:59.381Z,97796.91
2023-01-20T14:20:29.833Z,97803.19
2023-01-20T14:23:25.351Z,97801.09
2023-01-20T14:26:08.752Z,97811.06
2023-01-20T14:28:42.576Z,97803.50
2023-01-20T14:31:18.195Z,97803.66
2023-01-20T14:33:47.268Z,97802.69
2023-01-20T14:36:21.495Z,97818.53
2023-01-20T14:38:58.353Z,97824.31
2023-01-20T14:41:32.682Z,97830.34
2023-01-20T14:44:01.089Z,97824.78
2023-01-20T14:46:29.817Z,97831.53
2023-01-20T14:48:57.969Z,97837.44
2023-01-20T14:51:27.039Z,97838.66
2023-01-20T14:54:45.460Z,97839.63
2023-01-20T14:57:24.878Z,97843.25
2023-01-20T15:00:20.697Z,97842.88
2023-01-20T15:03:05.219Z,97852.50
2023-01-20T15:05:38.409Z,97859.69
2023-01-20T15:08:26.255Z,97860.50
2023-01-20T15:11:20.502Z,97859.50
2023-01-20T15:14:08.315Z,97863.06
2023-01-20T15:16:44.655Z,97860.66
2023-01-20T15:19:29.907Z,97856.25
2023-01-20T15:22:17.170Z,97865.84
2023-01-20T15:24:47.446Z,97854.69
2023-01-20T15:27:27.461Z,97864.84
2023-01-20T15:30:03.880Z,97863.00
2023-01-20T15:32:31.586Z,97871.94
2023-01-20T15:34:59.016Z,97872.50
2023-01-20T15:37:26.476Z,97882.16
2023-01-20T15:39:55.253Z,97886.19
2023-01-20T15:42:24.205Z,97882.88
2023-01-20T15:44:51.713Z,97877.47
2023-01-20T15:47:21.815Z,97882.53
2023-01-20T15:49:49.240Z,97875.84
2023-01-20T15:52:19.820Z,97880.72
2023-01-20T15:54:47.369Z,97882.69
2023-01-20T15:57:17.782Z,97883.81
2023-01-20T15:59:45.949Z,97890.47
2023-01-20T16:02:18.766Z,97891.84
2023-01-20T16:04:46.651Z,97892.69
2023-01-20T16:07:16.126Z,97900.91
2023-01-20T16:09:44.545Z,97911.06
2023-01-20T16:12:13.612Z,97904.75
2023-01-20T16:14:43.366Z,97897.00
2023-01-20T16:17:15.912Z,97899.91
2023-01-20T16:19:43.361Z,97904.25
2023-01-20T16:22:11.582Z,97910.94
2023-01-20T16:24:39.114Z,97907.72
2023-01-20T16:27:17.289Z,97925.69
2023-01-20T16:29:46.394Z,97922.09
2023-01-20T16:32:17.055Z,97929.28
2023-01-20T16:34:45.673Z,97925.38
2023-01-20T16:37:14.768Z,97924.56
2023-01-20T16:39:42.093Z,97931.38
2023-01-20T16:42:11.414Z,97926.63
2023-01-20T16:44:38.896Z,97934.28
2023-01-20T16:47:08.244Z,97929.16
2023-01-20T16:49:35.815Z,97941.25
2023-01-20T16:52:03.246Z,97934.44
2023-01-20T16:54:30.721Z,97938.19
2023-01-20T16:56:58.156Z,97946.94
2023-01-20T16:59:26.185Z,97940.25
2023-01-20T17:01:53.761Z,97949.75
2023-01-20T17:04:22.559Z,97954.31
2023-01-20T17:06:52.868Z,97948.47
2023-01-20T17:09:20.314Z,97956.53
2023-01-20T17:11:47.808Z,97957.38
2023-01-20T17:14:15.521Z,97958.06
2023-01-20T17:16:43.085Z,97962.41
2023-01-20T17:19:10.950Z,97960.84
2023-01-20T17:21:40.039Z,97960.28
2023-01-20T17:24:07.822Z,97960.16
2023-01-20T17:26:36.938Z,97960.56
2023-01-20T17:29:06.932Z,97961.53
2023-01-20T17:31:36.611Z,97971.66
2023-01-20T17:34:04.397Z,97970.25
2023-01-20T17:36:34.227Z,97975.94
2023-01-20T17:39:03.850Z,97977.22
2023-01-20T17:41:31.363Z,97981.81
2023-01-20T17:44:01.807Z,97980.53
2023-01-20T17:46:31.302Z,97982.34
2023-01-20T17:48:59.392Z,97989.13
2023-01-20T17:51:28.597Z,97993.59
2023-01-20T17:53:58.336Z,97994.16
2023-01-20T17:56:27.725Z,97999.72
2023-01-20T17:58:55.171Z,97991.34
2023-01-20T18:01:25.512Z,97997.75
2023-01-20T18:03:55.049Z,97998.13
2023-01-20T18:06:24.098Z,98000.06
2023-01-20T18:08:53.145Z,98000.06
2023-01-20T18:11:22.750Z,97998.78
2023-01-20T18:13:53.298Z,98002.84
2023-01-20T18:16:22.518Z,98002.84
2023-01-20T18:18:51.057Z,98006.72
2023-01-20T18:21:19.867Z,98005.88
2023-01-20T18:23:48.344Z,98007.69
2023-01-20T18:26:16.908Z,98012.13
2023-01-20T18:28:45.878Z,98012.38
2023-01-20T18:31:17.175Z,98013.75
2023-01-20T18:33:47.506Z,98005.53
2023-01-20T18:36:17.625Z,98015.81
2023-01-20T18:38:50.299Z,98009.13
2023-01-20T18:41:18.225Z,98016.19
2023-01-20T18:43:45.680Z,98015.38
2023-01-20T18:46:14.963Z,98012.03
2023-01-20T18:48:45.758Z,98013.81
2023-01-20T18:51:15.079Z,98022.69
2023-01-20T18:53:45.571Z,98013.38
2023-01-20T18:56:15.234Z,98025.16
2023-01-20T18:58:46.963Z,98022.41
2023-01-20T19:01:17.512Z,98022.41
2023-01-20T19:03:46.019Z,98029.47
2023-01-20T19:06:15.256Z,98033.34
2023-01-20T19:08:43.285Z,98024.47
2023-01-20T19:11:13.550Z,98026.38
2023-01-20T19:13:41.515Z,98032.31
2023-01-20T19:16:10.446Z,98039.28
2023-01-20T19:18:39.992Z,98038.13
2023-01-20T19:21:08.861Z,98037.28
2023-01-20T19:23:36.869Z,98035.00
2023-01-20T19:26:05.431Z,98037.38
2023-01-20T19:28:33.267Z,98039.59
2023-01-20T19:31:07.952Z,98045.00
2023-01-20T19:33:36.141Z,98051.94
2023-01-20T19:36:07.345Z,98043.78
2023-01-20T19:38:36.126Z,98040.94
2023-01-20T19:41:07.555Z,98048.59
2023-01-20T19:43:36.065Z,98056.50
2023-01-20T19:46:04.408Z,98062.63
2023-01-20T19:48:32.721Z,98057.03
2023-01-20T19:51:04.211Z,98061.34
2023-01-20T19:53:33.861Z,98064.47
2023-01-20T19:56:02.335Z,98065.56
2023-01-20T19:58:29.809Z,98071.13
2023-01-20T20:01:06.146Z,98067.38
2023-01-20T20:03:33.836Z,98071.69
2023-01-20T20:06:01.469Z,98084.16
2023-01-20T20:08:28.932Z,98082.72
2023-01-20T20:10:57.771Z,98077.81
2023-01-20T20:13:25.664Z,98081.19
2023-01-20T20:16:00.958Z,98087.31
2023-01-20T20:18:28.550Z,98090.78
2023-01-20T20:20:56.122Z,98090.19
2023-01-20T20:23:23.605Z,98093.78
2023-01-20T20:25:53.877Z,98095.00
2023-01-20T20:28:23.462Z,98100.88
2023-01-20T20:30:51.098Z,98098.50
2023-01-20T20:33:19.061Z,98104.00
2023-01-20T20:35:46.536Z,98100.50
2023-01-20T20:38:13.981Z,98102.44
2023-01-20T20:40:41.440Z,98104.25
2023-01-20T20:43:08.922Z,98101.50
2023-01-20T20:45:37.725Z,98107.34
2023-01-20T20:48:05.628Z,98099.91
2023-01-20T20:50:33.404Z,98103.91
2023-01-20T20:53:00.994Z,98110.38
2023-01-20T20:55:29.215Z,98105.81
2023-01-20T20:57:57.148Z,98105.38
2023-01-20T21:00:28.049Z,98104.91
2023-01-20T21:02:57.266Z,98110.75
2023-01-20T21:05:24.904Z,98110.16
2023-01-20T21:07:52.386Z,98119.63
2023-01-20T21:10:21.101Z,98115.44
2023-01-20T21:12:48.596Z,98117.50
2023-01-20T21:15:17.810Z,98121.06
2023-01-20T21:17:45.133Z,98122.16
2023-01-20T21:20:14.347Z,98127.44
2023-01-20T21:22:41.970Z,98129.59
2023-01-20T21:25:09.997Z,98125.38
2023-01-20T21:27:38.013Z,98132.22
2023-01-20T21:30:06.430Z,98133.06
2023-01-20T21:32:33.903Z,98136.78
2023-01-20T21:35:02.503Z,98123.13
2023-01-20T21:37:31.279Z,98135.84
2023-01-20T21:39:58.714Z,98132.09
2023-01-20T21:42:26.432Z,98146.00
2023-01-20T21:44:53.895Z,98141.94
2023-01-20T21:47:21.343Z,98133.56
2023-01-20T21:50:06.669Z,98136.28
2023-01-20T21:52:42.042Z,98134.66
2023-01-20T21:55:10.550Z,98137.97
2023-01-20T21:57:38.594Z,98135.47
2023-01-20T22:00:08.457Z,98146.03
2023-01-20T22:02:38.319Z,98143.16
2023-01-20T22:05:06.648Z,98150.56
2023-01-20T22:07:35.553Z,98144.59
2023-01-20T22:10:03.091Z,98144.09
2023-01-20T22:12:34.402Z,98150.06
2023-01-20T22:15:02.273Z,98147.44
2023-01-20T22:17:29.967Z,98150.81
2023-01-20T22:19:57.495Z,98153.56
2023-01-20T22:22:24.995Z,98160.72
2023-01-20T22:24:53.829Z,98165.00
2023-01-20T22:27:21.333Z,98158.56
2023-01-20T22:29:48.973Z,98153.19
2023-01-20T22:32:16.435Z,98162.91
2023-01-20T22:34:43.879Z,98166.97
2023-01-20T22:37:11.344Z,98160.50
2023-01-20T22:39:38.817Z,98162.53
2023-01-20T22:42:08.046Z,98164.44
2023-01-20T22:44:35.396Z,98169.59
2023-01-20T22:47:09.608Z,98171.16
2023-01-20T22:49:37.333Z,98181.69
2023-01-20T22:52:04.961Z,98175.13
2023-01-20T22:54:32.421Z,98178.78
2023-01-20T22:57:02.802Z,98188.47
2023-01-20T22:59:31.693Z,98189.47
2023-01-20T23:01:59.151Z,98189.88
2023-01-20T23:04:27.426Z,98187.34
2023-01-20T23:06:55.310Z,98193.09
2023-01-20T23:09:22.986Z,98189.16
2023-01-20T23:11:50.782Z,98191.97
2023-01-20T23:14:38.560Z,98190.78
2023-01-20T23:17:07.184Z,98184.47
2023-01-20T23:19:34.639Z,98190.94
2023-01-20T23:22:02.245Z,98200.38
2023-01-20T23:24:29.684Z,98205.97
2023-01-20T23:26:57.180Z,98215.81
2023-01-20T23:29:24.617Z,98220.94
2023-01-20T23:31:52.380Z,98223.47
2023-01-20T23:34:21.200Z,98227.44
2023-01-20T23:36:48.612Z,98229.94
2023-01-20T23:39:16.045Z,98226.53
2023-01-20T23:41:43.528Z,98233.47
2023-01-20T23:44:11.442Z,98236.72
2023-01-20T23:46:39.054Z,98234.97
2023-01-20T23:49:06.666Z,98226.53
2023-01-20T23:51:35.460Z,98239.72
2023-01-20T23:54:04.659Z,98237.00
2023-01-20T23:56:32.093Z,98236.19
2023-01-20T23:58:59.504Z,98241.72
